createdAt,value
2023-01-29T00:00:23.607Z,4.00
2023-01-29T00:03:31.978Z,4.00
2023-01-29T00:06:40.589Z,4.00
2023-01-29T00:09:48.968Z,4.00
2023-01-29T00:12:57.357Z,4.10
2023-01-29T00:16:07.352Z,4.10
2023-01-29T00:19:15.925Z,4.10
2023-01-29T00:22:24.703Z,4.10
2023-01-29T00:25:33.269Z,4.20
2023-01-29T00:28:41.635Z,4.30
2023-01-29T00:31:51.549Z,4.30
2023-01-29T00:35:00.028Z,4.30
2023-01-29T00:38:08.672Z,4.40
2023-01-29T00:41:34.979Z,4.40
2023-01-29T00:45:01.195Z,4.40
2023-01-29T00:48:11.016Z,4.40
2023-01-29T00:51:19.403Z,4.50
2023-01-29T00:54:28.210Z,4.50
2023-01-29T00:57:37.343Z,4.50
2023-01-29T01:00:46.904Z,4.60
2023-01-29T01:03:55.754Z,4.60
2023-01-29T01:07:04.073Z,4.60
2023-01-29T01:10:24.946Z,4.70
2023-01-29T01:13:33.810Z,4.70
2023-01-29T01:16:42.188Z,4.70
2023-01-29T01:19:51.973Z,4.70
2023-01-29T01:23:00.605Z,4.70
2023-01-29T01:26:12.406Z,4.80
2023-01-29T01:29:20.805Z,4.80
2023-01-29T01:32:29.354Z,4.80
2023-01-29T01:35:41.059Z,4.80
2023-01-29T01:38:49.706Z,4.90
2023-01-29T01:41:58.155Z,4.80
2023-01-29T01:45:10.355Z,4.90
2023-01-29T01:48:22.865Z,4.90
2023-01-29T01:51:35.346Z,4.90
2023-01-29T01:54:44.996Z,4.90
2023-01-29T01:57:59.015Z,4.90
2023-01-29T02:01:09.124Z,4.90
2023-01-29T02:04:38.954Z,4.90
2023-01-29T02:08:08.991Z,5.00
2023-01-29T02:11:18.350Z,5.00
2023-01-29T02:14:26.818Z,5.00
2023-01-29T02:17:35.376Z,5.00
2023-01-29T02:20:48.843Z,5.00
2023-01-29T02:24:39.213Z,5.00
2023-01-29T02:28:26.808Z,5.00
2023-01-29T02:31:45.159Z,5.10
2023-01-29T02:35:27.866Z,5.10
2023-01-29T02:38:43.561Z,5.10
2023-01-29T02:42:00.112Z,5.10
2023-01-29T02:45:15.151Z,5.10
2023-01-29T02:48:26.673Z,5.10
2023-01-29T02:51:40.017Z,5.10
2023-01-29T02:54:53.542Z,5.10
2023-01-29T02:58:08.180Z,5.10
2023-01-29T03:01:24.422Z,5.10
2023-01-29T03:04:38.608Z,5.10
2023-01-29T03:07:53.441Z,5.10
2023-01-29T03:11:13.626Z,5.10
2023-01-29T03:14:25.703Z,5.20
2023-01-29T03:17:39.974Z,5.20
2023-01-29T03:20:52.951Z,5.10
2023-01-29T03:24:22.658Z,5.20
2023-01-29T03:27:56.278Z,5.10
2023-01-29T03:31:25.881Z,5.20
2023-01-29T03:34:43.693Z,5.20
2023-01-29T03:37:52.166Z,5.20
2023-01-29T03:41:07.267Z,5.30
2023-01-29T03:44:20.469Z,5.20
2023-01-29T03:47:40.502Z,5.30
2023-01-29T03:50:57.534Z,5.20
2023-01-29T03:54:16.131Z,5.20
2023-01-29T03:57:32.821Z,5.30
2023-01-29T04:00:46.280Z,5.30
2023-01-29T04:03:57.990Z,5.30
2023-01-29T04:07:12.865Z,5.30
2023-01-29T04:10:25.829Z,5.30
2023-01-29T04:13:35.850Z,5.30
2023-01-29T04:16:49.548Z,5.30
2023-01-29T04:20:15.137Z,5.30
2023-01-29T04:23:27.517Z,5.30
2023-01-29T04:27:00.508Z,5.30
2023-01-29T04:30:22.492Z,5.30
2023-01-29T04:33:40.490Z,5.30
2023-01-29T04:36:58.741Z,5.30
2023-01-29T04:40:19.528Z,5.30
2023-01-29T04:43:31.626Z,5.30
2023-01-29T04:46:50.033Z,5.30
2023-01-29T04:50:08.816Z,5.30
2023-01-29T04:53:24.460Z,5.30
2023-01-29T04:56:40.295Z,5.30
2023-01-29T04:59:54.106Z,5.30
2023-01-29T05:03:03.933Z,5.30
2023-01-29T05:06:13.629Z,5.30
2023-01-29T05:09:23.249Z,5.30
2023-01-29T05:12:33.517Z,5.30
2023-01-29T05:15:46.208Z,5.40
2023-01-29T05:18:55.369Z,5.40
2023-01-29T05:22:06.539Z,5.30
2023-01-29T05:25:23.906Z,5.30
2023-01-29T05:28:32.917Z,5.30
2023-01-29T05:31:41.314Z,5.30
2023-01-29T05:34:49.749Z,5.40
2023-01-29T05:37:58.251Z,5.30
2023-01-29T05:41:07.157Z,5.40
2023-01-29T05:44:17.006Z,5.40
2023-01-29T05:47:25.462Z,5.40
2023-01-29T05:50:33.917Z,5.30
2023-01-29T05:53:42.247Z,5.30
2023-01-29T05:56:50.639Z,5.30
2023-01-29T06:00:00.453Z,5.30
2023-01-29T06:03:08.993Z,5.30
2023-01-29T06:06:18.378Z,5.40
2023-01-29T06:09:26.779Z,5.30
2023-01-29T06:12:35.198Z,5.40
2023-01-29T06:15:45.071Z,5.40
2023-01-29T06:18:53.598Z,5.40
2023-01-29T06:22:01.930Z,5.40
2023-01-29T06:25:11.063Z,5.30
2023-01-29T06:28:19.402Z,5.30
2023-01-29T06:31:38.174Z,5.30
2023-01-29T06:34:49.594Z,5.30
2023-01-29T06:37:58.216Z,5.40
2023-01-29T06:41:11.115Z,5.40
2023-01-29T06:44:19.622Z,5.40
2023-01-29T06:47:29.803Z,5.40
2023-01-29T06:50:38.238Z,5.40
2023-01-29T06:53:47.024Z,5.40
2023-01-29T06:56:56.328Z,5.40
2023-01-29T07:00:06.579Z,5.40
2023-01-29T07:03:16.426Z,5.50
2023-01-29T07:06:29.555Z,5.50
2023-01-29T07:09:37.887Z,5.50
2023-01-29T07:12:46.288Z,5.40
2023-01-29T07:15:55.193Z,5.40
2023-01-29T07:19:05.041Z,5.40
2023-01-29T07:22:14.289Z,5.40
2023-01-29T07:25:23.156Z,5.40
2023-01-29T07:28:31.781Z,5.40
2023-01-29T07:31:40.236Z,5.40
2023-01-29T07:34:50.132Z,5.40
2023-01-29T07:37:58.941Z,5.40
2023-01-29T07:41:07.760Z,5.40
2023-01-29T07:44:16.105Z,5.40
2023-01-29T07:47:24.430Z,5.50
2023-01-29T07:50:35.610Z,5.50
2023-01-29T07:53:45.094Z,5.50
2023-01-29T07:56:53.550Z,5.50
2023-01-29T08:00:01.921Z,5.50
2023-01-29T08:03:21.591Z,5.50
2023-01-29T08:06:31.489Z,5.50
2023-01-29T08:09:39.899Z,5.60
2023-01-29T08:12:48.257Z,5.60
2023-01-29T08:16:00.860Z,5.60
2023-01-29T08:19:09.208Z,5.70
2023-01-29T08:22:18.995Z,5.70
2023-01-29T08:25:27.780Z,5.70
2023-01-29T08:28:38.694Z,5.60
2023-01-29T08:31:47.559Z,5.50
2023-01-29T08:34:58.004Z,5.60
2023-01-29T08:38:10.694Z,5.70
2023-01-29T08:41:20.358Z,5.90
2023-01-29T08:44:28.757Z,6.00
2023-01-29T08:47:37.199Z,5.90
2023-01-29T08:50:46.177Z,5.80
2023-01-29T08:53:55.985Z,5.70
2023-01-29T08:57:04.447Z,5.70
2023-01-29T09:00:14.304Z,5.70
2023-01-29T09:03:23.032Z,5.70
2023-01-29T09:06:31.465Z,5.70
2023-01-29T09:09:41.273Z,5.60
2023-01-29T09:12:49.681Z,5.60
2023-01-29T09:16:00.791Z,5.60
2023-01-29T09:19:09.402Z,5.60
2023-01-29T09:22:17.816Z,5.60
2023-01-29T09:25:27.895Z,5.70
2023-01-29T09:28:36.411Z,5.70
2023-01-29T09:31:44.886Z,5.60
2023-01-29T09:34:53.412Z,5.60
2023-01-29T09:38:01.938Z,5.60
2023-01-29T09:41:29.214Z,5.60
2023-01-29T09:44:51.003Z,5.70
2023-01-29T09:48:01.916Z,5.70
2023-01-29T09:51:16.426Z,5.70
2023-01-29T09:54:29.499Z,5.70
2023-01-29T09:57:45.386Z,5.70
2023-01-29T10:01:04.243Z,5.70
2023-01-29T10:04:39.193Z,5.70
2023-01-29T10:08:27.370Z,5.70
2023-01-29T10:11:44.997Z,5.70
2023-01-29T10:15:04.188Z,5.70
2023-01-29T10:18:42.202Z,5.70
2023-01-29T10:22:15.985Z,5.70
2023-01-29T10:25:25.565Z,5.70
2023-01-29T10:28:38.382Z,5.70
2023-01-29T10:31:51.353Z,5.70
2023-01-29T10:35:04.839Z,5.70
2023-01-29T10:38:24.844Z,5.70
2023-01-29T10:41:50.402Z,5.60
2023-01-29T10:45:11.405Z,5.60
2023-01-29T10:48:49.703Z,5.60
2023-01-29T10:52:13.636Z,5.60
2023-01-29T10:55:36.018Z,5.60
2023-01-29T10:58:50.408Z,5.60
2023-01-29T11:02:00.294Z,5.50
2023-01-29T11:05:21.291Z,5.50
2023-01-29T11:08:35.860Z,5.50
2023-01-29T11:11:48.939Z,5.50
2023-01-29T11:15:02.517Z,5.50
2023-01-29T11:18:14.190Z,5.50
2023-01-29T11:21:25.202Z,5.50
2023-01-29T11:24:33.576Z,5.50
2023-01-29T11:27:46.383Z,5.50
2023-01-29T11:30:55.681Z,5.50
2023-01-29T11:34:07.054Z,5.50
2023-01-29T11:37:18.442Z,5.50
2023-01-29T11:40:39.499Z,5.50
2023-01-29T11:43:48.119Z,5.50
2023-01-29T11:46:57.671Z,5.50
2023-01-29T11:50:06.723Z,5.50
2023-01-29T11:53:35.467Z,5.50
2023-01-29T11:56:46.189Z,5.50
2023-01-29T11:59:56.590Z,5.50
2023-01-29T12:03:14.795Z,5.50
2023-01-29T12:06:25.024Z,5.40
2023-01-29T12:09:36.633Z,5.50
2023-01-29T12:12:45.244Z,5.40
2023-01-29T12:16:12.813Z,5.40
2023-01-29T12:19:30.682Z,5.50
2023-01-29T12:22:46.856Z,5.40
2023-01-29T12:26:07.439Z,5.40
2023-01-29T12:29:25.274Z,5.40
2023-01-29T12:32:40.846Z,5.40
2023-01-29T12:35:53.475Z,5.30
2023-01-29T12:39:01.904Z,5.30
2023-01-29T12:42:17.749Z,5.30
2023-01-29T12:45:29.489Z,5.30
2023-01-29T12:48:43.428Z,5.40
2023-01-29T12:51:59.112Z,5.40
2023-01-29T12:55:13.671Z,5.40
2023-01-29T12:58:28.707Z,5.40
2023-01-29T13:01:42.051Z,5.40
2023-01-29T13:04:56.658Z,5.50
2023-01-29T13:08:09.929Z,5.50
2023-01-29T13:11:24.043Z,5.50
2023-01-29T13:14:43.520Z,5.50
2023-01-29T13:17:55.602Z,5.50
2023-01-29T13:21:04.715Z,5.50
2023-01-29T13:24:16.981Z,5.50
2023-01-29T13:27:27.324Z,5.50
2023-01-29T13:30:38.564Z,5.50
2023-01-29T13:33:55.147Z,5.50
2023-01-29T13:37:10.064Z,5.50
2023-01-29T13:40:24.545Z,5.50
2023-01-29T13:43:37.848Z,5.50
2023-01-29T13:46:52.813Z,5.50
2023-01-29T13:50:07.899Z,5.50
2023-01-29T13:53:24.117Z,5.50
2023-01-29T13:56:59.633Z,5.50
2023-01-29T14:00:31.186Z,5.50
2023-01-29T14:04:04.853Z,5.50
2023-01-29T14:07:49.098Z,5.40
2023-01-29T14:11:36.122Z,5.50
2023-01-29T14:15:05.495Z,5.50
2023-01-29T14:18:20.708Z,5.50
2023-01-29T14:21:32.126Z,5.40
2023-01-29T14:24:44.521Z,5.40
2023-01-29T14:27:54.502Z,5.40
2023-01-29T14:31:04.084Z,5.40
2023-01-29T14:34:23.694Z,5.40
2023-01-29T14:37:36.983Z,5.40
2023-01-29T14:40:47.341Z,5.40
2023-01-29T14:44:29.108Z,5.40
2023-01-29T14:48:05.525Z,5.40
2023-01-29T14:51:16.250Z,5.40
2023-01-29T14:54:30.623Z,5.30
2023-01-29T14:57:39.845Z,5.40
2023-01-29T15:00:54.523Z,5.40
2023-01-29T15:04:06.033Z,5.30
2023-01-29T15:07:24.647Z,5.30
2023-01-29T15:10:41.367Z,5.30
2023-01-29T15:13:54.863Z,5.20
2023-01-29T15:17:20.824Z,5.20
2023-01-29T15:20:32.883Z,5.20
2023-01-29T15:23:41.870Z,5.20
2023-01-29T15:26:51.846Z,5.20
2023-01-29T15:30:02.480Z,5.20
2023-01-29T15:33:12.694Z,5.20
2023-01-29T15:36:24.916Z,5.20
2023-01-29T15:39:33.415Z,5.20
2023-01-29T15:42:48.630Z,5.20
2023-01-29T15:46:00.520Z,5.20
2023-01-29T15:49:11.217Z,5.20
2023-01-29T15:52:25.837Z,5.20
2023-01-29T15:55:34.678Z,5.20
2023-01-29T15:58:47.975Z,5.10
2023-01-29T16:01:56.411Z,5.20
2023-01-29T16:05:06.822Z,5.10
2023-01-29T16:08:16.946Z,5.10
2023-01-29T16:11:25.664Z,5.10
2023-01-29T16:14:35.644Z,5.10
2023-01-29T16:17:46.160Z,5.00
2023-01-29T16:20:56.185Z,5.10
2023-01-29T16:24:10.133Z,5.10
2023-01-29T16:27:18.587Z,5.10
2023-01-29T16:30:29.755Z,5.10
2023-01-29T16:33:40.128Z,5.10
2023-01-29T16:36:49.873Z,5.10
2023-01-29T16:39:59.133Z,5.20
2023-01-29T16:43:46.869Z,5.20
2023-01-29T16:46:56.733Z,5.20
2023-01-29T16:50:28.586Z,5.20
2023-01-29T16:53:37.416Z,5.20
2023-01-29T16:56:47.152Z,5.20
2023-01-29T16:59:57.982Z,5.30
2023-01-29T17:03:08.906Z,5.30
2023-01-29T17:06:23.395Z,5.30
2023-01-29T17:09:35.035Z,5.30
2023-01-29T17:12:43.675Z,5.30
2023-01-29T17:15:52.214Z,5.30
2023-01-29T17:19:02.603Z,5.30
2023-01-29T17:22:14.829Z,5.30
2023-01-29T17:25:23.812Z,5.30
2023-01-29T17:28:32.378Z,5.30
2023-01-29T17:31:40.926Z,5.30
2023-01-29T17:34:50.760Z,5.30
2023-01-29T17:37:59.135Z,5.40
2023-01-29T17:41:12.765Z,5.40
2023-01-29T17:44:21.905Z,5.40
2023-01-29T17:47:30.633Z,5.40
2023-01-29T17:50:42.193Z,5.40
2023-01-29T17:53:50.688Z,5.40
2023-01-29T17:56:59.362Z,5.40
2023-01-29T18:00:17.403Z,5.40
2023-01-29T18:03:26.722Z,5.40
2023-01-29T18:06:36.808Z,5.40
2023-01-29T18:09:45.152Z,5.40
2023-01-29T18:12:53.526Z,5.40
2023-01-29T18:16:02.204Z,5.40
2023-01-29T18:19:16.500Z,5.40
2023-01-29T18:22:26.467Z,5.40
2023-01-29T18:25:34.909Z,5.40
2023-01-29T18:28:43.939Z,5.40
2023-01-29T18:31:52.326Z,5.40
2023-01-29T18:35:01.046Z,5.40
2023-01-29T18:38:10.865Z,5.40
2023-01-29T18:41:19.317Z,5.40
2023-01-29T18:44:29.702Z,5.50
2023-01-29T18:47:38.617Z,5.40
2023-01-29T18:50:47.125Z,5.40
2023-01-29T18:53:57.072Z,5.40
2023-01-29T18:57:13.811Z,5.40
2023-01-29T19:00:34.273Z,5.50
2023-01-29T19:03:43.190Z,5.50
2023-01-29T19:06:51.663Z,5.50
2023-01-29T19:10:02.415Z,5.50
2023-01-29T19:13:10.831Z,5.50
2023-01-29T19:16:19.283Z,5.50
2023-01-29T19:19:28.024Z,5.50
2023-01-29T19:22:36.445Z,5.50
2023-01-29T19:25:46.317Z,5.50
2023-01-29T19:28:56.320Z,5.50
2023-01-29T19:32:05.339Z,5.50
2023-01-29T19:35:13.721Z,5.60
2023-01-29T19:38:22.151Z,5.50
2023-01-29T19:41:32.555Z,5.60
2023-01-29T19:44:41.279Z,5.60
2023-01-29T19:47:49.703Z,5.60
2023-01-29T19:51:00.244Z,5.60
2023-01-29T19:54:10.177Z,5.60
2023-01-29T19:57:19.930Z,5.60
2023-01-29T20:00:28.451Z,5.60
2023-01-29T20:03:38.146Z,5.60
2023-01-29T20:06:46.554Z,5.60
2023-01-29T20:09:56.481Z,5.50
2023-01-29T20:13:06.567Z,5.60
2023-01-29T20:16:15.252Z,5.60
2023-01-29T20:19:23.689Z,5.50
2023-01-29T20:22:32.418Z,5.60
2023-01-29T20:25:42.232Z,5.50
2023-01-29T20:28:52.152Z,5.50
2023-01-29T20:32:00.802Z,5.60
2023-01-29T20:35:11.026Z,5.50
2023-01-29T20:38:19.616Z,5.50
2023-01-29T20:41:28.257Z,5.50
2023-01-29T20:44:38.088Z,5.60
2023-01-29T20:47:46.482Z,5.50
2023-01-29T20:50:55.195Z,5.60
2023-01-29T20:54:03.566Z,5.60
2023-01-29T20:57:12.007Z,5.50
2023-01-29T21:00:22.523Z,5.50
2023-01-29T21:03:30.903Z,5.50
2023-01-29T21:06:39.380Z,5.50
2023-01-29T21:09:47.764Z,5.50
2023-01-29T21:12:56.145Z,5.50
2023-01-29T21:16:06.452Z,5.50
2023-01-29T21:19:15.688Z,5.50
2023-01-29T21:22:24.262Z,5.50
2023-01-29T21:25:32.624Z,5.50
2023-01-29T21:28:40.957Z,5.50
2023-01-29T21:31:50.967Z,5.50
2023-01-29T21:34:59.482Z,5.50
2023-01-29T21:38:07.841Z,5.50
2023-01-29T21:41:16.195Z,5.50
2023-01-29T21:44:23.618Z,5.60
2023-01-29T21:47:33.392Z,5.60
2023-01-29T21:50:41.847Z,5.60
2023-01-29T21:53:50.280Z,5.60
2023-01-29T21:56:58.672Z,5.60
2023-01-29T22:00:09.315Z,5.60
2023-01-29T22:03:19.122Z,5.60
2023-01-29T22:06:27.620Z,5.70
2023-01-29T22:09:36.010Z,5.70
2023-01-29T22:12:44.951Z,5.70
2023-01-29T22:15:56.222Z,5.70
2023-01-29T22:19:06.187Z,5.70
2023-01-29T22:22:15.690Z,5.70
2023-01-29T22:25:24.074Z,5.80
2023-01-29T22:28:32.502Z,5.80
2023-01-29T22:31:40.883Z,5.80
2023-01-29T22:34:50.631Z,5.80
2023-01-29T22:37:59.050Z,5.80
2023-01-29T22:41:07.446Z,5.80
2023-01-29T22:44:15.870Z,5.80
2023-01-29T22:47:24.332Z,5.80
2023-01-29T22:50:34.112Z,5.80
2023-01-29T22:53:44.393Z,5.80
2023-01-29T22:56:52.758Z,5.80
2023-01-29T23:00:01.106Z,5.90
2023-01-29T23:03:09.487Z,5.90
2023-01-29T23:06:21.685Z,5.90
2023-01-29T23:09:30.518Z,5.80
2023-01-29T23:12:38.922Z,5.80
2023-01-29T23:15:47.352Z,5.80
2023-01-29T23:18:56.837Z,5.80
2023-01-29T23:22:06.656Z,5.70
2023-01-29T23:25:15.044Z,5.70
2023-01-29T23:28:22.434Z,5.70
2023-01-29T23:31:31.740Z,5.60
2023-01-29T23:34:40.212Z,5.70
2023-01-29T23:37:50.063Z,5.60
2023-01-29T23:40:58.793Z,5.60
2023-01-29T23:44:07.293Z,5.60
2023-01-29T23:47:15.750Z,5.60
2023-01-29T23:50:24.076Z,5.60
2023-01-29T23:53:33.887Z,5.60
2023-01-29T23:56:42.285Z,5.60
2023-01-29T23:59:50.687Z,5.60
